sensor_id;sensor_type;location;lat;lon;timestamp;P1;durP1;ratioP1;P2;durP2;ratioP2
27031;SDS011;14580;52.918;9.214;2023-02-01T00:00:28;17.10;;;2.93;;
27031;SDS011;14580;52.918;9.214;2023-02-01T00:02:53;6.60;;;1.97;;
27031;SDS011;14580;52.918;9.214;2023-02-01T00:05:19;15.87;;;2.47;;
27031;SDS011;14580;52.918;9.214;2023-02-01T00:07:46;15.43;;;2.50;;
27031;SDS011;14580;52.918;9.214;2023-02-01T00:10:13;13.57;;;2.70;;
27031;SDS011;14580;52.918;9.214;2023-02-01T00:12:38;12.87;;;2.77;;
27031;SDS011;14580;52.918;9.214;2023-02-01T00:15:04;16.60;;;3.03;;
27031;SDS011;14580;52.918;9.214;2023-02-01T00:17:30;12.87;;;3.07;;
27031;SDS011;14580;52.918;9.214;2023-02-01T00:19:56;14.00;;;3.23;;
27031;SDS011;14580;52.918;9.214;2023-02-01T00:22:22;14.97;;;3.50;;
27031;SDS011;14580;52.918;9.214;2023-02-01T00:24:48;15.33;;;2.53;;
27031;SDS011;14580;52.918;9.214;2023-02-01T00:27:14;15.23;;;2.60;;
27031;SDS011;14580;52.918;9.214;2023-02-01T00:29:43;16.13;;;2.93;;
27031;SDS011;14580;52.918;9.214;2023-02-01T00:32:10;9.27;;;2.00;;
27031;SDS011;14580;52.918;9.214;2023-02-01T00:34:35;17.00;;;3.27;;
27031;SDS011;14580;52.918;9.214;2023-02-01T00:37:01;11.43;;;3.03;;
27031;SDS011;14580;52.918;9.214;2023-02-01T00:39:27;13.07;;;2.30;;
27031;SDS011;14580;52.918;9.214;2023-02-01T00:41:53;15.27;;;3.10;;
27031;SDS011;14580;52.918;9.214;2023-02-01T00:44:19;10.90;;;3.10;;
27031;SDS011;14580;52.918;9.214;2023-02-01T00:46:45;14.73;;;3.00;;
27031;SDS011;14580;52.918;9.214;2023-02-01T00:49:11;11.67;;;3.17;;
27031;SDS011;14580;52.918;9.214;2023-02-01T00:51:36;10.67;;;2.33;;
27031;SDS011;14580;52.918;9.214;2023-02-01T00:54:02;12.43;;;4.27;;
27031;SDS011;14580;52.918;9.214;2023-02-01T00:56:28;19.27;;;3.37;;
27031;SDS011;14580;52.918;9.214;2023-02-01T00:58:54;13.67;;;2.80;;
27031;SDS011;14580;52.918;9.214;2023-02-01T01:01:22;14.50;;;3.13;;
27031;SDS011;14580;52.918;9.214;2023-02-01T01:04:07;18.47;;;2.80;;
27031;SDS011;14580;52.918;9.214;2023-02-01T01:06:33;14.60;;;3.07;;
27031;SDS011;14580;52.918;9.214;2023-02-01T01:09:00;10.80;;;2.20;;
27031;SDS011;14580;52.918;9.214;2023-02-01T01:11:29;10.33;;;2.40;;
27031;SDS011;14580;52.918;9.214;2023-02-01T01:13:56;8.40;;;2.43;;
27031;SDS011;14580;52.918;9.214;2023-02-01T01:16:23;13.97;;;3.17;;
27031;SDS011;14580;52.918;9.214;2023-02-01T01:18:50;10.10;;;2.63;;
27031;SDS011;14580;52.918;9.214;2023-02-01T01:21:16;20.73;;;3.20;;
27031;SDS011;14580;52.918;9.214;2023-02-01T01:23:43;10.07;;;3.00;;
27031;SDS011;14580;52.918;9.214;2023-02-01T01:26:11;16.23;;;3.43;;
27031;SDS011;14580;52.918;9.214;2023-02-01T01:28:40;18.93;;;3.70;;
27031;SDS011;14580;52.918;9.214;2023-02-01T01:31:09;18.23;;;2.80;;
27031;SDS011;14580;52.918;9.214;2023-02-01T01:33:36;13.50;;;2.50;;
27031;SDS011;14580;52.918;9.214;2023-02-01T01:36:04;14.80;;;3.17;;
27031;SDS011;14580;52.918;9.214;2023-02-01T01:38:31;6.67;;;1.93;;
27031;SDS011;14580;52.918;9.214;2023-02-01T01:40:57;17.40;;;2.90;;
27031;SDS011;14580;52.918;9.214;2023-02-01T01:43:22;16.67;;;3.10;;
27031;SDS011;14580;52.918;9.214;2023-02-01T01:45:49;10.70;;;2.60;;
27031;SDS011;14580;52.918;9.214;2023-02-01T01:48:20;16.07;;;2.43;;
27031;SDS011;14580;52.918;9.214;2023-02-01T01:50:52;9.97;;;2.67;;
27031;SDS011;14580;52.918;9.214;2023-02-01T01:53:28;14.90;;;2.03;;
27031;SDS011;14580;52.918;9.214;2023-02-01T01:56:03;11.93;;;2.30;;
27031;SDS011;14580;52.918;9.214;2023-02-01T01:58:29;9.50;;;3.70;;
27031;SDS011;14580;52.918;9.214;2023-02-01T02:00:57;18.93;;;3.37;;
27031;SDS011;14580;52.918;9.214;2023-02-01T02:03:25;14.20;;;2.40;;
27031;SDS011;14580;52.918;9.214;2023-02-01T02:05:58;13.37;;;3.30;;
27031;SDS011;14580;52.918;9.214;2023-02-01T02:08:27;13.63;;;2.67;;
27031;SDS011;14580;52.918;9.214;2023-02-01T02:10:54;21.50;;;2.13;;
27031;SDS011;14580;52.918;9.214;2023-02-01T02:43:49;17.63;;;2.70;;
27031;SDS011;14580;52.918;9.214;2023-02-01T02:46:46;11.50;;;3.10;;
27031;SDS011;14580;52.918;9.214;2023-02-01T02:52:46;11.10;;;2.73;;
27031;SDS011;14580;52.918;9.214;2023-02-01T02:55:34;12.13;;;2.33;;
27031;SDS011;14580;52.918;9.214;2023-02-01T02:58:02;13.13;;;2.77;;
27031;SDS011;14580;52.918;9.214;2023-02-01T03:00:48;18.80;;;3.37;;
27031;SDS011;14580;52.918;9.214;2023-02-01T03:03:35;21.67;;;3.20;;
27031;SDS011;14580;52.918;9.214;2023-02-01T03:06:22;13.03;;;2.40;;
27031;SDS011;14580;52.918;9.214;2023-02-01T03:08:48;10.73;;;2.00;;
27031;SDS011;14580;52.918;9.214;2023-02-01T03:11:18;17.40;;;3.03;;
27031;SDS011;14580;52.918;9.214;2023-02-01T03:13:51;14.03;;;2.50;;
27031;SDS011;14580;52.918;9.214;2023-02-01T03:18:54;11.97;;;2.67;;
27031;SDS011;14580;52.918;9.214;2023-02-01T03:24:10;12.57;;;2.53;;
27031;SDS011;14580;52.918;9.214;2023-02-01T03:26:42;12.27;;;2.33;;
27031;SDS011;14580;52.918;9.214;2023-02-01T03:29:21;17.50;;;3.30;;
27031;SDS011;14580;52.918;9.214;2023-02-01T03:31:53;11.10;;;2.87;;
27031;SDS011;14580;52.918;9.214;2023-02-01T03:34:19;10.50;;;2.50;;
27031;SDS011;14580;52.918;9.214;2023-02-01T03:36:49;11.60;;;3.30;;
27031;SDS011;14580;52.918;9.214;2023-02-01T03:39:45;12.63;;;2.40;;
27031;SDS011;14580;52.918;9.214;2023-02-01T03:47:27;17.97;;;2.97;;
27031;SDS011;14580;52.918;9.214;2023-02-01T03:50:02;18.23;;;2.97;;
27031;SDS011;14580;52.918;9.214;2023-02-01T03:52:34;9.47;;;2.33;;
27031;SDS011;14580;52.918;9.214;2023-02-01T03:55:07;11.90;;;2.50;;
27031;SDS011;14580;52.918;9.214;2023-02-01T03:57:35;10.93;;;2.67;;
27031;SDS011;14580;52.918;9.214;2023-02-01T04:00:18;19.83;;;3.00;;
27031;SDS011;14580;52.918;9.214;2023-02-01T04:02:47;10.17;;;2.10;;
27031;SDS011;14580;52.918;9.214;2023-02-01T04:05:13;14.73;;;2.57;;
27031;SDS011;14580;52.918;9.214;2023-02-01T04:07:39;9.13;;;3.03;;
27031;SDS011;14580;52.918;9.214;2023-02-01T04:10:06;12.17;;;2.50;;
27031;SDS011;14580;52.918;9.214;2023-02-01T04:12:32;14.50;;;3.73;;
27031;SDS011;14580;52.918;9.214;2023-02-01T04:14:58;11.10;;;2.67;;
27031;SDS011;14580;52.918;9.214;2023-02-01T04:17:25;12.67;;;2.50;;
27031;SDS011;14580;52.918;9.214;2023-02-01T04:19:51;12.33;;;2.17;;
27031;SDS011;14580;52.918;9.214;2023-02-01T04:22:17;10.90;;;2.63;;
27031;SDS011;14580;52.918;9.214;2023-02-01T04:24:44;12.17;;;3.03;;
27031;SDS011;14580;52.918;9.214;2023-02-01T04:27:09;15.70;;;3.57;;
27031;SDS011;14580;52.918;9.214;2023-02-01T04:29:35;10.03;;;2.83;;
27031;SDS011;14580;52.918;9.214;2023-02-01T04:32:02;14.73;;;3.10;;
27031;SDS011;14580;52.918;9.214;2023-02-01T04:34:28;15.37;;;2.90;;
27031;SDS011;14580;52.918;9.214;2023-02-01T04:36:54;12.80;;;2.90;;
27031;SDS011;14580;52.918;9.214;2023-02-01T04:39:20;8.27;;;2.87;;
27031;SDS011;14580;52.918;9.214;2023-02-01T04:41:46;9.03;;;2.63;;
27031;SDS011;14580;52.918;9.214;2023-02-01T04:44:13;6.63;;;2.30;;
27031;SDS011;14580;52.918;9.214;2023-02-01T04:46:43;7.47;;;2.30;;
27031;SDS011;14580;52.918;9.214;2023-02-01T04:49:10;14.20;;;2.93;;
27031;SDS011;14580;52.918;9.214;2023-02-01T04:51:36;8.03;;;2.40;;
27031;SDS011;14580;52.918;9.214;2023-02-01T04:54:03;8.67;;;2.40;;
27031;SDS011;14580;52.918;9.214;2023-02-01T04:56:29;8.13;;;2.93;;
27031;SDS011;14580;52.918;9.214;2023-02-01T04:58:55;10.43;;;2.80;;
27031;SDS011;14580;52.918;9.214;2023-02-01T05:01:21;6.83;;;1.90;;
27031;SDS011;14580;52.918;9.214;2023-02-01T05:03:47;9.00;;;2.20;;
27031;SDS011;14580;52.918;9.214;2023-02-01T05:06:13;6.83;;;2.30;;
27031;SDS011;14580;52.918;9.214;2023-02-01T05:08:39;13.20;;;2.53;;
27031;SDS011;14580;52.918;9.214;2023-02-01T05:11:05;6.90;;;2.20;;
27031;SDS011;14580;52.918;9.214;2023-02-01T05:13:31;10.23;;;2.87;;
27031;SDS011;14580;52.918;9.214;2023-02-01T05:16:15;10.67;;;2.40;;
27031;SDS011;14580;52.918;9.214;2023-02-01T05:18:41;7.23;;;2.57;;
27031;SDS011;14580;52.918;9.214;2023-02-01T05:21:08;6.13;;;2.80;;
27031;SDS011;14580;52.918;9.214;2023-02-01T05:23:34;13.20;;;2.63;;
27031;SDS011;14580;52.918;9.214;2023-02-01T05:26:22;10.00;;;2.30;;
27031;SDS011;14580;52.918;9.214;2023-02-01T05:28:48;11.43;;;3.10;;
27031;SDS011;14580;52.918;9.214;2023-02-01T05:31:15;6.93;;;3.10;;
27031;SDS011;14580;52.918;9.214;2023-02-01T05:33:41;14.67;;;3.33;;
27031;SDS011;14580;52.918;9.214;2023-02-01T05:36:07;14.40;;;2.90;;
27031;SDS011;14580;52.918;9.214;2023-02-01T05:38:33;13.33;;;3.63;;
27031;SDS011;14580;52.918;9.214;2023-02-01T05:40:59;9.07;;;2.70;;
27031;SDS011;14580;52.918;9.214;2023-02-01T05:43:25;9.63;;;2.63;;
27031;SDS011;14580;52.918;9.214;2023-02-01T05:45:51;11.80;;;4.10;;
27031;SDS011;14580;52.918;9.214;2023-02-01T05:48:18;6.47;;;2.63;;
27031;SDS011;14580;52.918;9.214;2023-02-01T05:50:44;8.17;;;2.60;;
27031;SDS011;14580;52.918;9.214;2023-02-01T05:53:10;7.33;;;2.33;;
27031;SDS011;14580;52.918;9.214;2023-02-01T05:55:36;11.07;;;3.03;;
27031;SDS011;14580;52.918;9.214;2023-02-01T05:58:03;10.10;;;2.73;;
27031;SDS011;14580;52.918;9.214;2023-02-01T06:00:29;10.27;;;2.50;;
27031;SDS011;14580;52.918;9.214;2023-02-01T06:02:55;7.57;;;2.50;;
27031;SDS011;14580;52.918;9.214;2023-02-01T06:05:21;6.40;;;2.60;;
27031;SDS011;14580;52.918;9.214;2023-02-01T06:07:47;7.60;;;2.47;;
27031;SDS011;14580;52.918;9.214;2023-02-01T06:10:15;8.63;;;1.70;;
27031;SDS011;14580;52.918;9.214;2023-02-01T06:12:42;10.03;;;2.07;;
27031;SDS011;14580;52.918;9.214;2023-02-01T06:15:09;8.00;;;1.60;;
27031;SDS011;14580;52.918;9.214;2023-02-01T06:17:36;5.03;;;1.93;;
27031;SDS011;14580;52.918;9.214;2023-02-01T06:20:03;6.20;;;2.00;;
27031;SDS011;14580;52.918;9.214;2023-02-01T06:22:31;6.20;;;2.00;;
27031;SDS011;14580;52.918;9.214;2023-02-01T06:24:58;5.93;;;1.67;;
27031;SDS011;14580;52.918;9.214;2023-02-01T06:27:24;3.50;;;1.77;;
27031;SDS011;14580;52.918;9.214;2023-02-01T06:29:50;5.53;;;2.00;;
27031;SDS011;14580;52.918;9.214;2023-02-01T06:32:16;6.20;;;1.50;;
27031;SDS011;14580;52.918;9.214;2023-02-01T06:34:43;3.40;;;1.67;;
27031;SDS011;14580;52.918;9.214;2023-02-01T06:37:09;11.03;;;2.53;;
27031;SDS011;14580;52.918;9.214;2023-02-01T06:39:36;5.07;;;2.07;;
27031;SDS011;14580;52.918;9.214;2023-02-01T06:42:02;7.33;;;2.43;;
27031;SDS011;14580;52.918;9.214;2023-02-01T06:44:28;4.17;;;2.07;;
27031;SDS011;14580;52.918;9.214;2023-02-01T06:46:54;8.47;;;2.53;;
27031;SDS011;14580;52.918;9.214;2023-02-01T06:49:21;9.37;;;2.93;;
27031;SDS011;14580;52.918;9.214;2023-02-01T06:51:47;11.50;;;3.07;;
27031;SDS011;14580;52.918;9.214;2023-02-01T06:54:13;8.13;;;2.27;;
27031;SDS011;14580;52.918;9.214;2023-02-01T06:56:39;6.90;;;2.20;;
27031;SDS011;14580;52.918;9.214;2023-02-01T06:59:05;8.77;;;2.30;;
27031;SDS011;14580;52.918;9.214;2023-02-01T07:01:31;11.37;;;2.77;;
27031;SDS011;14580;52.918;9.214;2023-02-01T07:03:57;12.00;;;2.57;;
27031;SDS011;14580;52.918;9.214;2023-02-01T07:06:23;13.77;;;2.90;;
27031;SDS011;14580;52.918;9.214;2023-02-01T07:08:49;12.17;;;2.87;;
27031;SDS011;14580;52.918;9.214;2023-02-01T07:11:19;7.77;;;2.40;;
27031;SDS011;14580;52.918;9.214;2023-02-01T07:13:45;8.40;;;2.90;;
27031;SDS011;14580;52.918;9.214;2023-02-01T07:16:12;8.40;;;2.97;;
27031;SDS011;14580;52.918;9.214;2023-02-01T07:18:39;8.83;;;3.37;;
27031;SDS011;14580;52.918;9.214;2023-02-01T07:21:05;7.50;;;2.73;;
27031;SDS011;14580;52.918;9.214;2023-02-01T07:23:32;7.53;;;2.57;;
27031;SDS011;14580;52.918;9.214;2023-02-01T07:25:58;16.87;;;3.60;;
27031;SDS011;14580;52.918;9.214;2023-02-01T07:28:26;8.93;;;2.27;;
27031;SDS011;14580;52.918;9.214;2023-02-01T07:30:53;11.00;;;3.43;;
27031;SDS011;14580;52.918;9.214;2023-02-01T07:33:20;11.10;;;2.63;;
27031;SDS011;14580;52.918;9.214;2023-02-01T07:35:47;6.87;;;1.93;;
27031;SDS011;14580;52.918;9.214;2023-02-01T07:38:13;9.80;;;3.00;;
27031;SDS011;14580;52.918;9.214;2023-02-01T07:40:40;7.83;;;2.57;;
27031;SDS011;14580;52.918;9.214;2023-02-01T07:43:06;10.77;;;2.10;;
27031;SDS011;14580;52.918;9.214;2023-02-01T07:45:33;11.00;;;2.27;;
27031;SDS011;14580;52.918;9.214;2023-02-01T07:48:00;6.97;;;2.97;;
27031;SDS011;14580;52.918;9.214;2023-02-01T07:50:26;15.67;;;2.47;;
27031;SDS011;14580;52.918;9.214;2023-02-01T07:52:52;9.80;;;2.40;;
27031;SDS011;14580;52.918;9.214;2023-02-01T07:55:18;8.13;;;2.30;;
27031;SDS011;14580;52.918;9.214;2023-02-01T07:57:45;8.87;;;2.80;;
27031;SDS011;14580;52.918;9.214;2023-02-01T08:00:12;12.07;;;3.37;;
27031;SDS011;14580;52.918;9.214;2023-02-01T08:03:00;11.03;;;2.40;;
27031;SDS011;14580;52.918;9.214;2023-02-01T08:05:26;8.93;;;3.23;;
27031;SDS011;14580;52.918;9.214;2023-02-01T08:07:52;9.23;;;3.07;;
27031;SDS011;14580;52.918;9.214;2023-02-01T08:10:18;14.90;;;2.70;;
27031;SDS011;14580;52.918;9.214;2023-02-01T08:12:45;11.50;;;2.63;;
27031;SDS011;14580;52.918;9.214;2023-02-01T08:15:16;9.43;;;2.83;;
27031;SDS011;14580;52.918;9.214;2023-02-01T08:17:46;5.53;;;2.00;;
27031;SDS011;14580;52.918;9.214;2023-02-01T08:20:16;12.73;;;2.63;;
27031;SDS011;14580;52.918;9.214;2023-02-01T08:22:42;9.10;;;2.13;;
27031;SDS011;14580;52.918;9.214;2023-02-01T08:25:09;7.43;;;2.60;;
27031;SDS011;14580;52.918;9.214;2023-02-01T08:27:35;11.67;;;2.37;;
27031;SDS011;14580;52.918;9.214;2023-02-01T08:30:02;5.73;;;1.83;;
27031;SDS011;14580;52.918;9.214;2023-02-01T08:32:29;9.70;;;1.90;;
27031;SDS011;14580;52.918;9.214;2023-02-01T08:34:55;6.63;;;2.23;;
27031;SDS011;14580;52.918;9.214;2023-02-01T08:37:21;10.77;;;2.37;;
27031;SDS011;14580;52.918;9.214;2023-02-01T08:39:47;12.73;;;2.33;;
27031;SDS011;14580;52.918;9.214;2023-02-01T08:42:15;6.37;;;1.70;;
27031;SDS011;14580;52.918;9.214;2023-02-01T08:45:00;8.20;;;2.80;;
27031;SDS011;14580;52.918;9.214;2023-02-01T08:47:27;13.47;;;2.37;;
27031;SDS011;14580;52.918;9.214;2023-02-01T08:49:53;7.07;;;2.30;;
27031;SDS011;14580;52.918;9.214;2023-02-01T08:52:20;10.83;;;2.33;;
27031;SDS011;14580;52.918;9.214;2023-02-01T08:54:46;7.83;;;2.37;;
27031;SDS011;14580;52.918;9.214;2023-02-01T08:57:12;11.07;;;2.23;;
27031;SDS011;14580;52.918;9.214;2023-02-01T08:59:38;7.67;;;2.60;;
27031;SDS011;14580;52.918;9.214;2023-02-01T09:02:04;10.77;;;2.23;;
27031;SDS011;14580;52.918;9.214;2023-02-01T09:04:30;6.50;;;2.13;;
27031;SDS011;14580;52.918;9.214;2023-02-01T09:06:56;11.17;;;2.93;;
27031;SDS011;14580;52.918;9.214;2023-02-01T09:09:22;6.07;;;2.50;;
27031;SDS011;14580;52.918;9.214;2023-02-01T09:11:48;9.23;;;2.40;;
27031;SDS011;14580;52.918;9.214;2023-02-01T09:14:17;11.20;;;2.53;;
27031;SDS011;14580;52.918;9.214;2023-02-01T09:16:43;8.33;;;2.00;;
27031;SDS011;14580;52.918;9.214;2023-02-01T09:19:09;11.30;;;3.03;;
27031;SDS011;14580;52.918;9.214;2023-02-01T09:21:35;12.83;;;2.27;;
27031;SDS011;14580;52.918;9.214;2023-02-01T09:24:02;11.10;;;2.80;;
27031;SDS011;14580;52.918;9.214;2023-02-01T09:26:29;12.37;;;3.17;;
27031;SDS011;14580;52.918;9.214;2023-02-01T09:28:55;6.93;;;2.27;;
27031;SDS011;14580;52.918;9.214;2023-02-01T09:31:21;18.67;;;3.40;;
27031;SDS011;14580;52.918;9.214;2023-02-01T09:33:46;11.73;;;2.63;;
27031;SDS011;14580;52.918;9.214;2023-02-01T09:36:12;6.97;;;2.40;;
27031;SDS011;14580;52.918;9.214;2023-02-01T09:38:38;15.27;;;2.90;;
27031;SDS011;14580;52.918;9.214;2023-02-01T09:41:16;15.93;;;2.37;;
27031;SDS011;14580;52.918;9.214;2023-02-01T09:46:47;14.50;;;2.73;;
27031;SDS011;14580;52.918;9.214;2023-02-01T09:49:15;8.30;;;2.47;;
27031;SDS011;14580;52.918;9.214;2023-02-01T09:51:46;11.60;;;2.80;;
27031;SDS011;14580;52.918;9.214;2023-02-01T09:56:55;10.57;;;2.33;;
27031;SDS011;14580;52.918;9.214;2023-02-01T09:59:40;12.57;;;2.50;;
27031;SDS011;14580;52.918;9.214;2023-02-01T10:02:17;12.33;;;2.10;;
27031;SDS011;14580;52.918;9.214;2023-02-01T10:04:48;8.27;;;2.93;;
27031;SDS011;14580;52.918;9.214;2023-02-01T10:10:07;13.47;;;2.17;;
27031;SDS011;14580;52.918;9.214;2023-02-01T10:18:23;7.30;;;1.83;;
27031;SDS011;14580;52.918;9.214;2023-02-01T10:26:46;10.97;;;2.60;;
27031;SDS011;14580;52.918;9.214;2023-02-01T10:29:23;9.23;;;2.00;;
27031;SDS011;14580;52.918;9.214;2023-02-01T10:31:50;8.33;;;1.97;;
27031;SDS011;14580;52.918;9.214;2023-02-01T10:34:34;12.17;;;2.17;;
27031;SDS011;14580;52.918;9.214;2023-02-01T10:37:08;14.10;;;2.37;;
27031;SDS011;14580;52.918;9.214;2023-02-01T10:39:45;12.33;;;2.77;;
27031;SDS011;14580;52.918;9.214;2023-02-01T10:42:12;8.70;;;2.70;;
27031;SDS011;14580;52.918;9.214;2023-02-01T10:44:42;13.23;;;2.73;;
27031;SDS011;14580;52.918;9.214;2023-02-01T10:47:10;13.13;;;2.63;;
27031;SDS011;14580;52.918;9.214;2023-02-01T10:52:18;11.73;;;2.50;;
27031;SDS011;14580;52.918;9.214;2023-02-01T10:54:47;11.47;;;2.20;;
27031;SDS011;14580;52.918;9.214;2023-02-01T10:57:23;9.13;;;2.17;;
27031;SDS011;14580;52.918;9.214;2023-02-01T10:59:51;11.00;;;2.50;;
27031;SDS011;14580;52.918;9.214;2023-02-01T11:02:30;10.87;;;2.80;;
27031;SDS011;14580;52.918;9.214;2023-02-01T11:05:02;13.97;;;2.87;;
27031;SDS011;14580;52.918;9.214;2023-02-01T11:07:45;8.40;;;1.70;;
27031;SDS011;14580;52.918;9.214;2023-02-01T11:10:36;10.57;;;2.67;;
27031;SDS011;14580;52.918;9.214;2023-02-01T11:13:17;10.77;;;2.50;;
27031;SDS011;14580;52.918;9.214;2023-02-01T11:15:46;9.77;;;2.60;;
27031;SDS011;14580;52.918;9.214;2023-02-01T11:18:26;9.73;;;2.17;;
27031;SDS011;14580;52.918;9.214;2023-02-01T11:20:53;8.33;;;2.23;;
27031;SDS011;14580;52.918;9.214;2023-02-01T11:23:21;8.67;;;2.47;;
27031;SDS011;14580;52.918;9.214;2023-02-01T11:25:56;9.67;;;2.60;;
27031;SDS011;14580;52.918;9.214;2023-02-01T11:28:25;6.77;;;1.80;;
27031;SDS011;14580;52.918;9.214;2023-02-01T11:30:59;7.17;;;1.80;;
27031;SDS011;14580;52.918;9.214;2023-02-01T11:33:32;5.53;;;1.70;;
27031;SDS011;14580;52.918;9.214;2023-02-01T11:36:15;7.67;;;2.13;;
27031;SDS011;14580;52.918;9.214;2023-02-01T11:38:51;7.43;;;2.43;;
27031;SDS011;14580;52.918;9.214;2023-02-01T11:41:43;13.37;;;2.40;;
27031;SDS011;14580;52.918;9.214;2023-02-01T11:44:32;13.93;;;2.97;;
27031;SDS011;14580;52.918;9.214;2023-02-01T11:49:54;8.60;;;2.53;;
27031;SDS011;14580;52.918;9.214;2023-02-01T11:52:29;6.80;;;1.83;;
27031;SDS011;14580;52.918;9.214;2023-02-01T11:55:10;4.47;;;2.07;;
27031;SDS011;14580;52.918;9.214;2023-02-01T11:58:20;10.07;;;2.63;;
27031;SDS011;14580;52.918;9.214;2023-02-01T12:20:57;3.53;;;1.80;;
27031;SDS011;14580;52.918;9.214;2023-02-01T12:26:56;3.60;;;1.33;;
27031;SDS011;14580;52.918;9.214;2023-02-01T12:32:07;5.13;;;1.63;;
27031;SDS011;14580;52.918;9.214;2023-02-01T12:34:56;6.73;;;1.70;;
27031;SDS011;14580;52.918;9.214;2023-02-01T12:43:12;6.93;;;1.53;;
27031;SDS011;14580;52.918;9.214;2023-02-01T12:45:54;2.30;;;0.73;;
27031;SDS011;14580;52.918;9.214;2023-02-01T12:51:21;2.33;;;0.80;;
27031;SDS011;14580;52.918;9.214;2023-02-01T12:53:52;0.70;;;0.40;;
27031;SDS011;14580;52.918;9.214;2023-02-01T12:56:22;0.27;;;0.27;;
27031;SDS011;14580;52.918;9.214;2023-02-01T12:58:59;2.07;;;0.40;;
27031;SDS011;14580;52.918;9.214;2023-02-01T13:06:47;0.37;;;0.37;;
27031;SDS011;14580;52.918;9.214;2023-02-01T13:12:05;0.40;;;0.40;;
27031;SDS011;14580;52.918;9.214;2023-02-01T13:17:21;1.57;;;0.47;;
27031;SDS011;14580;52.918;9.214;2023-02-01T13:19:57;0.60;;;0.27;;
27031;SDS011;14580;52.918;9.214;2023-02-01T13:25:29;0.70;;;0.50;;
27031;SDS011;14580;52.918;9.214;2023-02-01T13:28:27;1.67;;;0.57;;
27031;SDS011;14580;52.918;9.214;2023-02-01T13:36:49;0.40;;;0.40;;
27031;SDS011;14580;52.918;9.214;2023-02-01T13:41:58;0.47;;;0.30;;
27031;SDS011;14580;52.918;9.214;2023-02-01T13:44:31;1.60;;;0.57;;
27031;SDS011;14580;52.918;9.214;2023-02-01T13:47:02;3.77;;;0.57;;
27031;SDS011;14580;52.918;9.214;2023-02-01T13:49:38;0.70;;;0.43;;
27031;SDS011;14580;52.918;9.214;2023-02-01T13:52:06;1.60;;;0.60;;
27031;SDS011;14580;52.918;9.214;2023-02-01T13:54:42;0.60;;;0.47;;
27031;SDS011;14580;52.918;9.214;2023-02-01T14:03:02;2.97;;;0.70;;
27031;SDS011;14580;52.918;9.214;2023-02-01T14:13:29;1.70;;;0.67;;
27031;SDS011;14580;52.918;9.214;2023-02-01T14:23:46;3.67;;;0.90;;
27031;SDS011;14580;52.918;9.214;2023-02-01T14:27:01;4.23;;;0.90;;
27031;SDS011;14580;52.918;9.214;2023-02-01T14:31:44;9.53;;;1.30;;
27031;SDS011;14580;52.918;9.214;2023-02-01T14:36:58;3.20;;;1.27;;
27031;SDS011;14580;52.918;9.214;2023-02-01T14:39:33;3.53;;;1.03;;
27031;SDS011;14580;52.918;9.214;2023-02-01T14:44:44;3.70;;;0.97;;
27031;SDS011;14580;52.918;9.214;2023-02-01T14:52:36;3.27;;;1.43;;
27031;SDS011;14580;52.918;9.214;2023-02-01T14:55:13;4.37;;;1.30;;
27031;SDS011;14580;52.918;9.214;2023-02-01T14:57:41;5.90;;;1.10;;
27031;SDS011;14580;52.918;9.214;2023-02-01T15:00:21;5.27;;;1.20;;
27031;SDS011;14580;52.918;9.214;2023-02-01T15:02:51;5.73;;;1.77;;
27031;SDS011;14580;52.918;9.214;2023-02-01T15:08:32;8.70;;;1.93;;
27031;SDS011;14580;52.918;9.214;2023-02-01T15:10:57;9.40;;;1.30;;
27031;SDS011;14580;52.918;9.214;2023-02-01T15:13:25;7.80;;;1.67;;
27031;SDS011;14580;52.918;9.214;2023-02-01T15:16:09;5.20;;;1.53;;
27031;SDS011;14580;52.918;9.214;2023-02-01T15:18:40;6.40;;;2.07;;
27031;SDS011;14580;52.918;9.214;2023-02-01T15:21:12;8.93;;;1.77;;
27031;SDS011;14580;52.918;9.214;2023-02-01T15:23:50;9.83;;;2.77;;
27031;SDS011;14580;52.918;9.214;2023-02-01T15:26:35;7.80;;;1.77;;
27031;SDS011;14580;52.918;9.214;2023-02-01T15:29:01;10.77;;;2.13;;
27031;SDS011;14580;52.918;9.214;2023-02-01T15:31:34;8.40;;;1.90;;
27031;SDS011;14580;52.918;9.214;2023-02-01T15:34:08;8.60;;;2.03;;
27031;SDS011;14580;52.918;9.214;2023-02-01T15:36:34;10.80;;;2.70;;
27031;SDS011;14580;52.918;9.214;2023-02-01T15:42:00;11.43;;;1.83;;
27031;SDS011;14580;52.918;9.214;2023-02-01T15:44:31;19.80;;;2.87;;
27031;SDS011;14580;52.918;9.214;2023-02-01T15:46:59;9.70;;;2.17;;
27031;SDS011;14580;52.918;9.214;2023-02-01T15:49:31;21.27;;;2.90;;
27031;SDS011;14580;52.918;9.214;2023-02-01T15:52:01;11.93;;;2.33;;
27031;SDS011;14580;52.918;9.214;2023-02-01T15:54:31;9.23;;;2.73;;
27031;SDS011;14580;52.918;9.214;2023-02-01T15:57:09;18.43;;;3.07;;
27031;SDS011;14580;52.918;9.214;2023-02-01T15:59:42;11.03;;;2.57;;
27031;SDS011;14580;52.918;9.214;2023-02-01T16:04:53;13.20;;;2.70;;
27031;SDS011;14580;52.918;9.214;2023-02-01T16:07:27;10.00;;;2.10;;
27031;SDS011;14580;52.918;9.214;2023-02-01T16:09:55;15.13;;;2.77;;
27031;SDS011;14580;52.918;9.214;2023-02-01T16:12:33;14.40;;;2.40;;
27031;SDS011;14580;52.918;9.214;2023-02-01T16:15:11;21.83;;;3.90;;
27031;SDS011;14580;52.918;9.214;2023-02-01T16:17:37;7.73;;;1.87;;
27031;SDS011;14580;52.918;9.214;2023-02-01T16:20:04;10.80;;;2.30;;
27031;SDS011;14580;52.918;9.214;2023-02-01T16:22:30;8.03;;;2.13;;
27031;SDS011;14580;52.918;9.214;2023-02-01T16:24:56;11.70;;;2.73;;
27031;SDS011;14580;52.918;9.214;2023-02-01T16:27:22;12.93;;;2.70;;
27031;SDS011;14580;52.918;9.214;2023-02-01T16:29:49;13.17;;;2.13;;
27031;SDS011;14580;52.918;9.214;2023-02-01T16:32:18;14.10;;;2.27;;
27031;SDS011;14580;52.918;9.214;2023-02-01T16:34:45;6.43;;;1.77;;
27031;SDS011;14580;52.918;9.214;2023-02-01T16:37:12;5.40;;;1.43;;
27031;SDS011;14580;52.918;9.214;2023-02-01T16:39:40;3.50;;;0.87;;
27031;SDS011;14580;52.918;9.214;2023-02-01T16:42:10;3.97;;;0.70;;
27031;SDS011;14580;52.918;9.214;2023-02-01T16:44:37;7.00;;;1.27;;
27031;SDS011;14580;52.918;9.214;2023-02-01T16:47:03;2.50;;;1.10;;
27031;SDS011;14580;52.918;9.214;2023-02-01T16:49:38;1.30;;;0.90;;
27031;SDS011;14580;52.918;9.214;2023-02-01T16:52:08;2.73;;;1.20;;
27031;SDS011;14580;52.918;9.214;2023-02-01T16:54:47;5.97;;;1.40;;
27031;SDS011;14580;52.918;9.214;2023-02-01T16:57:14;3.07;;;1.17;;
27031;SDS011;14580;52.918;9.214;2023-02-01T16:59:42;8.20;;;1.70;;
27031;SDS011;14580;52.918;9.214;2023-02-01T17:02:14;5.20;;;1.37;;
27031;SDS011;14580;52.918;9.214;2023-02-01T17:04:44;8.13;;;1.20;;
27031;SDS011;14580;52.918;9.214;2023-02-01T17:07:14;1.83;;;0.70;;
27031;SDS011;14580;52.918;9.214;2023-02-01T17:09:41;1.67;;;1.20;;
27031;SDS011;14580;52.918;9.214;2023-02-01T17:12:14;1.97;;;1.00;;
27031;SDS011;14580;52.918;9.214;2023-02-01T17:14:45;3.83;;;0.70;;
27031;SDS011;14580;52.918;9.214;2023-02-01T17:17:11;8.10;;;1.60;;
27031;SDS011;14580;52.918;9.214;2023-02-01T17:19:36;4.53;;;1.60;;
27031;SDS011;14580;52.918;9.214;2023-02-01T17:22:02;6.37;;;1.47;;
27031;SDS011;14580;52.918;9.214;2023-02-01T17:24:29;5.40;;;1.13;;
27031;SDS011;14580;52.918;9.214;2023-02-01T17:26:56;11.17;;;1.77;;
27031;SDS011;14580;52.918;9.214;2023-02-01T17:29:23;6.13;;;1.30;;
27031;SDS011;14580;52.918;9.214;2023-02-01T17:31:51;8.20;;;2.17;;
27031;SDS011;14580;52.918;9.214;2023-02-01T17:34:19;5.13;;;1.67;;
27031;SDS011;14580;52.918;9.214;2023-02-01T17:36:46;7.13;;;1.53;;
27031;SDS011;14580;52.918;9.214;2023-02-01T17:39:13;7.37;;;1.70;;
27031;SDS011;14580;52.918;9.214;2023-02-01T17:42:00;10.00;;;1.60;;
27031;SDS011;14580;52.918;9.214;2023-02-01T17:44:26;3.27;;;1.27;;
27031;SDS011;14580;52.918;9.214;2023-02-01T17:46:52;4.60;;;1.50;;